sensor_id;sensor_type;location;lat;lon;timestamp;P1;durP1;ratioP1;P2;durP2;ratioP2
68870;SDS011;55906;52.278;6.808;2022-10-16T00:01:17;8.73;;;4.85;;
68870;SDS011;55906;52.278;6.808;2022-10-16T00:03:46;6.80;;;4.25;;
68870;SDS011;55906;52.278;6.808;2022-10-16T00:06:14;7.90;;;4.00;;
68870;SDS011;55906;52.278;6.808;2022-10-16T00:08:42;10.15;;;4.43;;
68870;SDS011;55906;52.278;6.808;2022-10-16T00:11:10;7.80;;;5.07;;
68870;SDS011;55906;52.278;6.808;2022-10-16T00:13:40;7.80;;;4.50;;
68870;SDS011;55906;52.278;6.808;2022-10-16T00:16:09;6.93;;;4.20;;
68870;SDS011;55906;52.278;6.808;2022-10-16T00:18:37;8.00;;;4.97;;
68870;SDS011;55906;52.278;6.808;2022-10-16T00:21:04;7.95;;;4.40;;
68870;SDS011;55906;52.278;6.808;2022-10-16T00:23:33;9.98;;;4.57;;
68870;SDS011;55906;52.278;6.808;2022-10-16T00:26:00;10.63;;;5.10;;
68870;SDS011;55906;52.278;6.808;2022-10-16T00:28:28;10.45;;;4.75;;
68870;SDS011;55906;52.278;6.808;2022-10-16T00:30:56;12.53;;;5.37;;
68870;SDS011;55906;52.278;6.808;2022-10-16T00:33:23;8.60;;;4.70;;
68870;SDS011;55906;52.278;6.808;2022-10-16T00:35:50;8.20;;;5.43;;
68870;SDS011;55906;52.278;6.808;2022-10-16T00:38:17;7.82;;;4.53;;
68870;SDS011;55906;52.278;6.808;2022-10-16T00:40:43;8.68;;;5.13;;
68870;SDS011;55906;52.278;6.808;2022-10-16T00:43:13;10.17;;;4.73;;
68870;SDS011;55906;52.278;6.808;2022-10-16T00:45:59;12.02;;;5.43;;
68870;SDS011;55906;52.278;6.808;2022-10-16T00:48:26;9.15;;;4.35;;
68870;SDS011;55906;52.278;6.808;2022-10-16T00:50:53;8.57;;;5.28;;
68870;SDS011;55906;52.278;6.808;2022-10-16T00:53:20;6.38;;;5.00;;
68870;SDS011;55906;52.278;6.808;2022-10-16T00:55:48;7.03;;;4.60;;
68870;SDS011;55906;52.278;6.808;2022-10-16T00:58:14;7.97;;;4.88;;
68870;SDS011;55906;52.278;6.808;2022-10-16T01:00:41;7.03;;;4.55;;
68870;SDS011;55906;52.278;6.808;2022-10-16T01:03:22;9.02;;;5.10;;
68870;SDS011;55906;52.278;6.808;2022-10-16T01:05:53;12.18;;;4.88;;
68870;SDS011;55906;52.278;6.808;2022-10-16T01:08:29;10.10;;;5.10;;
68870;SDS011;55906;52.278;6.808;2022-10-16T01:11:03;7.85;;;5.20;;
68870;SDS011;55906;52.278;6.808;2022-10-16T01:13:38;8.95;;;5.20;;
68870;SDS011;55906;52.278;6.808;2022-10-16T01:16:10;11.73;;;4.95;;
68870;SDS011;55906;52.278;6.808;2022-10-16T01:18:42;8.98;;;4.68;;
68870;SDS011;55906;52.278;6.808;2022-10-16T01:21:12;10.70;;;5.10;;
68870;SDS011;55906;52.278;6.808;2022-10-16T01:23:43;7.47;;;4.85;;
68870;SDS011;55906;52.278;6.808;2022-10-16T01:29:15;8.55;;;5.18;;
68870;SDS011;55906;52.278;6.808;2022-10-16T01:31:47;7.38;;;4.80;;
68870;SDS011;55906;52.278;6.808;2022-10-16T01:34:18;9.67;;;5.17;;
68870;SDS011;55906;52.278;6.808;2022-10-16T01:36:51;9.30;;;5.25;;
68870;SDS011;55906;52.278;6.808;2022-10-16T01:39:21;10.27;;;5.68;;
68870;SDS011;55906;52.278;6.808;2022-10-16T01:41:55;8.40;;;5.78;;
68870;SDS011;55906;52.278;6.808;2022-10-16T01:44:31;9.45;;;5.20;;
68870;SDS011;55906;52.278;6.808;2022-10-16T01:47:01;7.73;;;5.73;;
68870;SDS011;55906;52.278;6.808;2022-10-16T01:49:30;7.47;;;5.47;;
68870;SDS011;55906;52.278;6.808;2022-10-16T01:52:00;8.15;;;5.57;;
68870;SDS011;55906;52.278;6.808;2022-10-16T01:54:31;9.50;;;5.53;;
68870;SDS011;55906;52.278;6.808;2022-10-16T01:57:01;8.35;;;5.30;;
68870;SDS011;55906;52.278;6.808;2022-10-16T01:59:32;11.20;;;5.20;;
68870;SDS011;55906;52.278;6.808;2022-10-16T02:02:05;8.65;;;4.57;;
68870;SDS011;55906;52.278;6.808;2022-10-16T02:04:36;7.88;;;5.00;;
68870;SDS011;55906;52.278;6.808;2022-10-16T02:07:05;7.93;;;4.80;;
68870;SDS011;55906;52.278;6.808;2022-10-16T02:09:33;8.73;;;4.65;;
68870;SDS011;55906;52.278;6.808;2022-10-16T02:12:03;7.60;;;5.17;;
68870;SDS011;55906;52.278;6.808;2022-10-16T02:14:38;8.43;;;4.95;;
68870;SDS011;55906;52.278;6.808;2022-10-16T02:17:10;7.70;;;5.30;;
68870;SDS011;55906;52.278;6.808;2022-10-16T02:19:37;6.70;;;4.97;;
68870;SDS011;55906;52.278;6.808;2022-10-16T02:22:04;10.60;;;5.03;;
68870;SDS011;55906;52.278;6.808;2022-10-16T02:24:33;7.07;;;5.03;;
68870;SDS011;55906;52.278;6.808;2022-10-16T02:27:08;7.60;;;5.72;;
68870;SDS011;55906;52.278;6.808;2022-10-16T02:29:41;9.98;;;5.55;;
68870;SDS011;55906;52.278;6.808;2022-10-16T02:32:13;9.38;;;6.05;;
68870;SDS011;55906;52.278;6.808;2022-10-16T02:34:44;10.95;;;6.13;;
68870;SDS011;55906;52.278;6.808;2022-10-16T02:37:12;11.90;;;6.87;;
68870;SDS011;55906;52.278;6.808;2022-10-16T02:39:39;8.90;;;6.13;;
68870;SDS011;55906;52.278;6.808;2022-10-16T02:42:09;11.50;;;6.40;;
68870;SDS011;55906;52.278;6.808;2022-10-16T02:44:36;12.32;;;6.32;;
68870;SDS011;55906;52.278;6.808;2022-10-16T02:47:04;9.93;;;6.10;;
68870;SDS011;55906;52.278;6.808;2022-10-16T02:49:31;8.77;;;6.33;;
68870;SDS011;55906;52.278;6.808;2022-10-16T02:51:57;9.40;;;6.30;;
68870;SDS011;55906;52.278;6.808;2022-10-16T02:54:24;9.20;;;6.40;;
68870;SDS011;55906;52.278;6.808;2022-10-16T02:56:50;8.25;;;5.82;;
68870;SDS011;55906;52.278;6.808;2022-10-16T02:59:17;9.27;;;5.43;;
68870;SDS011;55906;52.278;6.808;2022-10-16T03:01:44;8.50;;;5.37;;
68870;SDS011;55906;52.278;6.808;2022-10-16T03:04:12;9.48;;;5.47;;
68870;SDS011;55906;52.278;6.808;2022-10-16T03:06:38;10.18;;;5.47;;
68870;SDS011;55906;52.278;6.808;2022-10-16T03:09:05;9.10;;;6.07;;
68870;SDS011;55906;52.278;6.808;2022-10-16T03:11:32;7.85;;;5.07;;
68870;SDS011;55906;52.278;6.808;2022-10-16T03:13:58;8.43;;;5.83;;
68870;SDS011;55906;52.278;6.808;2022-10-16T03:16:25;6.65;;;4.90;;
68870;SDS011;55906;52.278;6.808;2022-10-16T03:18:51;6.57;;;4.78;;
68870;SDS011;55906;52.278;6.808;2022-10-16T03:21:19;6.55;;;5.30;;
68870;SDS011;55906;52.278;6.808;2022-10-16T03:23:46;10.48;;;5.43;;
68870;SDS011;55906;52.278;6.808;2022-10-16T03:26:13;8.53;;;5.50;;
68870;SDS011;55906;52.278;6.808;2022-10-16T03:28:39;7.32;;;4.85;;
68870;SDS011;55906;52.278;6.808;2022-10-16T03:31:06;6.80;;;5.07;;
68870;SDS011;55906;52.278;6.808;2022-10-16T03:33:33;7.25;;;4.75;;
68870;SDS011;55906;52.278;6.808;2022-10-16T03:35:59;9.25;;;4.93;;
68870;SDS011;55906;52.278;6.808;2022-10-16T03:38:27;8.20;;;4.77;;
68870;SDS011;55906;52.278;6.808;2022-10-16T03:40:54;7.20;;;4.35;;
68870;SDS011;55906;52.278;6.808;2022-10-16T03:43:21;6.90;;;4.90;;
68870;SDS011;55906;52.278;6.808;2022-10-16T03:45:47;6.82;;;4.70;;
68870;SDS011;55906;52.278;6.808;2022-10-16T03:48:16;6.07;;;4.32;;
68870;SDS011;55906;52.278;6.808;2022-10-16T03:50:42;7.83;;;4.30;;
68870;SDS011;55906;52.278;6.808;2022-10-16T03:53:09;9.10;;;4.20;;
68870;SDS011;55906;52.278;6.808;2022-10-16T03:55:37;8.25;;;4.60;;
68870;SDS011;55906;52.278;6.808;2022-10-16T03:58:04;7.72;;;4.15;;
68870;SDS011;55906;52.278;6.808;2022-10-16T04:00:30;7.25;;;4.72;;
68870;SDS011;55906;52.278;6.808;2022-10-16T04:02:59;6.47;;;4.53;;
68870;SDS011;55906;52.278;6.808;2022-10-16T04:05:26;8.30;;;4.53;;
68870;SDS011;55906;52.278;6.808;2022-10-16T04:07:53;6.68;;;4.40;;
68870;SDS011;55906;52.278;6.808;2022-10-16T04:10:20;7.93;;;4.57;;
68870;SDS011;55906;52.278;6.808;2022-10-16T04:12:48;5.35;;;4.07;;
68870;SDS011;55906;52.278;6.808;2022-10-16T04:15:14;6.50;;;4.57;;
68870;SDS011;55906;52.278;6.808;2022-10-16T04:17:41;6.82;;;4.53;;
68870;SDS011;55906;52.278;6.808;2022-10-16T04:20:08;6.05;;;4.20;;
68870;SDS011;55906;52.278;6.808;2022-10-16T04:22:35;6.70;;;4.50;;
68870;SDS011;55906;52.278;6.808;2022-10-16T04:25:01;6.60;;;4.30;;
68870;SDS011;55906;52.278;6.808;2022-10-16T04:27:28;6.33;;;4.50;;
68870;SDS011;55906;52.278;6.808;2022-10-16T04:29:57;8.82;;;4.88;;
68870;SDS011;55906;52.278;6.808;2022-10-16T04:32:25;6.60;;;5.07;;
68870;SDS011;55906;52.278;6.808;2022-10-16T04:34:52;7.82;;;4.78;;
68870;SDS011;55906;52.278;6.808;2022-10-16T04:37:19;8.32;;;4.70;;
68870;SDS011;55906;52.278;6.808;2022-10-16T04:39:49;6.67;;;5.03;;
68870;SDS011;55906;52.278;6.808;2022-10-16T04:42:16;5.40;;;4.10;;
68870;SDS011;55906;52.278;6.808;2022-10-16T04:44:43;6.35;;;4.35;;
68870;SDS011;55906;52.278;6.808;2022-10-16T04:47:11;8.20;;;4.53;;
68870;SDS011;55906;52.278;6.808;2022-10-16T04:49:39;7.72;;;4.60;;
68870;SDS011;55906;52.278;6.808;2022-10-16T04:52:05;6.67;;;4.80;;
68870;SDS011;55906;52.278;6.808;2022-10-16T04:54:34;8.80;;;4.85;;
68870;SDS011;55906;52.278;6.808;2022-10-16T04:57:00;6.22;;;4.50;;
68870;SDS011;55906;52.278;6.808;2022-10-16T04:59:27;8.27;;;4.90;;
68870;SDS011;55906;52.278;6.808;2022-10-16T05:01:54;6.93;;;5.00;;
68870;SDS011;55906;52.278;6.808;2022-10-16T05:04:22;9.33;;;5.50;;
68870;SDS011;55906;52.278;6.808;2022-10-16T05:06:48;6.85;;;4.85;;
68870;SDS011;55906;52.278;6.808;2022-10-16T05:09:15;7.45;;;4.82;;
68870;SDS011;55906;52.278;6.808;2022-10-16T05:11:42;7.63;;;4.90;;
68870;SDS011;55906;52.278;6.808;2022-10-16T05:14:08;6.85;;;4.68;;
68870;SDS011;55906;52.278;6.808;2022-10-16T05:16:35;6.03;;;4.47;;
68870;SDS011;55906;52.278;6.808;2022-10-16T05:19:01;6.00;;;4.55;;
68870;SDS011;55906;52.278;6.808;2022-10-16T05:21:29;6.15;;;4.20;;
68870;SDS011;55906;52.278;6.808;2022-10-16T05:23:56;6.65;;;4.05;;
68870;SDS011;55906;52.278;6.808;2022-10-16T05:26:23;7.72;;;4.15;;
68870;SDS011;55906;52.278;6.808;2022-10-16T05:28:49;6.13;;;4.60;;
68870;SDS011;55906;52.278;6.808;2022-10-16T05:31:16;5.95;;;4.43;;
68870;SDS011;55906;52.278;6.808;2022-10-16T05:33:42;5.63;;;4.32;;
68870;SDS011;55906;52.278;6.808;2022-10-16T05:36:10;8.80;;;4.55;;
68870;SDS011;55906;52.278;6.808;2022-10-16T05:38:39;6.13;;;4.63;;
68870;SDS011;55906;52.278;6.808;2022-10-16T05:41:06;6.50;;;4.43;;
68870;SDS011;55906;52.278;6.808;2022-10-16T05:43:33;6.35;;;4.22;;
68870;SDS011;55906;52.278;6.808;2022-10-16T05:46:00;6.53;;;4.57;;
68870;SDS011;55906;52.278;6.808;2022-10-16T05:48:28;11.65;;;4.20;;
68870;SDS011;55906;52.278;6.808;2022-10-16T05:50:56;5.25;;;3.83;;
68870;SDS011;55906;52.278;6.808;2022-10-16T05:53:23;7.47;;;4.30;;
68870;SDS011;55906;52.278;6.808;2022-10-16T05:55:54;5.47;;;4.32;;
68870;SDS011;55906;52.278;6.808;2022-10-16T05:58:21;5.60;;;4.20;;
68870;SDS011;55906;52.278;6.808;2022-10-16T06:00:55;6.80;;;4.43;;
68870;SDS011;55906;52.278;6.808;2022-10-16T06:03:22;8.50;;;4.72;;
68870;SDS011;55906;52.278;6.808;2022-10-16T06:05:49;6.33;;;4.20;;
68870;SDS011;55906;52.278;6.808;2022-10-16T06:08:16;6.60;;;4.70;;
68870;SDS011;55906;52.278;6.808;2022-10-16T06:10:42;7.93;;;4.47;;
68870;SDS011;55906;52.278;6.808;2022-10-16T06:13:11;7.20;;;4.40;;
68870;SDS011;55906;52.278;6.808;2022-10-16T06:15:38;6.78;;;4.57;;
68870;SDS011;55906;52.278;6.808;2022-10-16T06:18:06;8.30;;;4.10;;
68870;SDS011;55906;52.278;6.808;2022-10-16T06:20:33;6.05;;;4.47;;
68870;SDS011;55906;52.278;6.808;2022-10-16T06:23:00;6.20;;;4.78;;
68870;SDS011;55906;52.278;6.808;2022-10-16T06:25:26;6.20;;;4.45;;
68870;SDS011;55906;52.278;6.808;2022-10-16T06:27:53;6.72;;;4.45;;
68870;SDS011;55906;52.278;6.808;2022-10-16T06:30:21;6.33;;;4.33;;
68870;SDS011;55906;52.278;6.808;2022-10-16T06:32:48;8.80;;;5.13;;
68870;SDS011;55906;52.278;6.808;2022-10-16T06:35:14;5.68;;;4.50;;
68870;SDS011;55906;52.278;6.808;2022-10-16T06:37:41;7.10;;;4.47;;
68870;SDS011;55906;52.278;6.808;2022-10-16T06:40:08;8.25;;;4.68;;
68870;SDS011;55906;52.278;6.808;2022-10-16T06:42:34;8.80;;;4.40;;
68870;SDS011;55906;52.278;6.808;2022-10-16T06:45:01;7.13;;;4.80;;
68870;SDS011;55906;52.278;6.808;2022-10-16T06:47:29;6.20;;;4.57;;
68870;SDS011;55906;52.278;6.808;2022-10-16T06:49:56;6.15;;;4.60;;
68870;SDS011;55906;52.278;6.808;2022-10-16T06:52:22;8.23;;;4.88;;
68870;SDS011;55906;52.278;6.808;2022-10-16T06:54:49;6.37;;;4.70;;
68870;SDS011;55906;52.278;6.808;2022-10-16T06:57:19;6.82;;;4.78;;
68870;SDS011;55906;52.278;6.808;2022-10-16T06:59:46;7.57;;;5.15;;
68870;SDS011;55906;52.278;6.808;2022-10-16T07:02:12;5.68;;;4.18;;
68870;SDS011;55906;52.278;6.808;2022-10-16T07:04:40;9.75;;;4.85;;
68870;SDS011;55906;52.278;6.808;2022-10-16T07:07:07;6.30;;;4.80;;
68870;SDS011;55906;52.278;6.808;2022-10-16T07:09:34;7.47;;;4.00;;
68870;SDS011;55906;52.278;6.808;2022-10-16T07:12:00;5.72;;;4.38;;
68870;SDS011;55906;52.278;6.808;2022-10-16T07:14:27;8.68;;;4.57;;
68870;SDS011;55906;52.278;6.808;2022-10-16T07:16:55;6.75;;;3.97;;
68870;SDS011;55906;52.278;6.808;2022-10-16T07:19:21;6.20;;;4.20;;
68870;SDS011;55906;52.278;6.808;2022-10-16T07:21:50;5.80;;;3.90;;
68870;SDS011;55906;52.278;6.808;2022-10-16T07:24:16;6.07;;;3.80;;
68870;SDS011;55906;52.278;6.808;2022-10-16T07:26:43;6.20;;;3.95;;
68870;SDS011;55906;52.278;6.808;2022-10-16T07:29:12;4.90;;;3.17;;
68870;SDS011;55906;52.278;6.808;2022-10-16T07:31:40;6.17;;;4.10;;
68870;SDS011;55906;52.278;6.808;2022-10-16T07:34:07;8.15;;;3.63;;
68870;SDS011;55906;52.278;6.808;2022-10-16T07:36:34;7.53;;;4.07;;
68870;SDS011;55906;52.278;6.808;2022-10-16T07:39:04;7.63;;;4.40;;
68870;SDS011;55906;52.278;6.808;2022-10-16T07:41:33;6.68;;;4.22;;
68870;SDS011;55906;52.278;6.808;2022-10-16T07:44:02;7.37;;;3.93;;
68870;SDS011;55906;52.278;6.808;2022-10-16T07:46:28;6.97;;;4.00;;
68870;SDS011;55906;52.278;6.808;2022-10-16T07:48:56;5.45;;;3.80;;
68870;SDS011;55906;52.278;6.808;2022-10-16T07:51:24;6.03;;;3.63;;
68870;SDS011;55906;52.278;6.808;2022-10-16T07:53:51;5.95;;;3.92;;
68870;SDS011;55906;52.278;6.808;2022-10-16T07:56:20;5.23;;;4.20;;
68870;SDS011;55906;52.278;6.808;2022-10-16T07:58:47;7.38;;;4.20;;
68870;SDS011;55906;52.278;6.808;2022-10-16T08:01:15;7.25;;;3.97;;
68870;SDS011;55906;52.278;6.808;2022-10-16T08:03:43;5.82;;;3.83;;
68870;SDS011;55906;52.278;6.808;2022-10-16T08:06:11;4.65;;;3.50;;
68870;SDS011;55906;52.278;6.808;2022-10-16T08:08:37;6.50;;;3.77;;
68870;SDS011;55906;52.278;6.808;2022-10-16T08:11:04;5.90;;;3.78;;
68870;SDS011;55906;52.278;6.808;2022-10-16T08:13:32;7.30;;;3.80;;
68870;SDS011;55906;52.278;6.808;2022-10-16T08:16:00;6.68;;;4.13;;
68870;SDS011;55906;52.278;6.808;2022-10-16T08:18:27;7.30;;;3.33;;
68870;SDS011;55906;52.278;6.808;2022-10-16T08:20:56;6.30;;;3.50;;
68870;SDS011;55906;52.278;6.808;2022-10-16T08:23:25;5.03;;;3.30;;
68870;SDS011;55906;52.278;6.808;2022-10-16T08:25:52;4.90;;;3.38;;
68870;SDS011;55906;52.278;6.808;2022-10-16T08:28:19;5.90;;;3.60;;
68870;SDS011;55906;52.278;6.808;2022-10-16T08:30:47;5.60;;;3.78;;
68870;SDS011;55906;52.278;6.808;2022-10-16T08:33:14;7.43;;;4.20;;
68870;SDS011;55906;52.278;6.808;2022-10-16T08:35:41;5.93;;;3.78;;
68870;SDS011;55906;52.278;6.808;2022-10-16T08:38:07;6.35;;;3.78;;
68870;SDS011;55906;52.278;6.808;2022-10-16T08:40:36;5.18;;;3.08;;
68870;SDS011;55906;52.278;6.808;2022-10-16T08:43:10;9.98;;;3.72;;
68870;SDS011;55906;52.278;6.808;2022-10-16T08:46:03;9.47;;;4.33;;
68870;SDS011;55906;52.278;6.808;2022-10-16T08:48:46;6.13;;;3.65;;
68870;SDS011;55906;52.278;6.808;2022-10-16T08:51:18;6.03;;;3.58;;
68870;SDS011;55906;52.278;6.808;2022-10-16T08:53:48;7.07;;;4.10;;
68870;SDS011;55906;52.278;6.808;2022-10-16T08:56:18;8.95;;;4.38;;
68870;SDS011;55906;52.278;6.808;2022-10-16T08:58:45;5.93;;;3.27;;
68870;SDS011;55906;52.278;6.808;2022-10-16T09:01:15;8.98;;;3.53;;
68870;SDS011;55906;52.278;6.808;2022-10-16T09:06:37;5.35;;;3.58;;
68870;SDS011;55906;52.278;6.808;2022-10-16T09:09:17;5.85;;;3.60;;
68870;SDS011;55906;52.278;6.808;2022-10-16T09:12:03;5.97;;;3.47;;
68870;SDS011;55906;52.278;6.808;2022-10-16T09:14:45;6.68;;;3.08;;
68870;SDS011;55906;52.278;6.808;2022-10-16T09:17:24;8.60;;;3.58;;
68870;SDS011;55906;52.278;6.808;2022-10-16T09:20:03;7.93;;;3.38;;
68870;SDS011;55906;52.278;6.808;2022-10-16T09:22:41;8.40;;;3.05;;
68870;SDS011;55906;52.278;6.808;2022-10-16T09:25:10;8.07;;;2.80;;
68870;SDS011;55906;52.278;6.808;2022-10-16T09:27:39;5.72;;;3.15;;
68870;SDS011;55906;52.278;6.808;2022-10-16T09:30:10;6.63;;;3.33;;
68870;SDS011;55906;52.278;6.808;2022-10-16T09:32:40;6.40;;;2.80;;
68870;SDS011;55906;52.278;6.808;2022-10-16T09:35:11;6.50;;;2.85;;
68870;SDS011;55906;52.278;6.808;2022-10-16T09:37:42;5.50;;;3.07;;
68870;SDS011;55906;52.278;6.808;2022-10-16T09:40:12;5.88;;;3.08;;
68870;SDS011;55906;52.278;6.808;2022-10-16T09:42:40;6.72;;;2.85;;
68870;SDS011;55906;52.278;6.808;2022-10-16T09:45:19;7.38;;;2.75;;
68870;SDS011;55906;52.278;6.808;2022-10-16T09:47:49;4.78;;;2.60;;
68870;SDS011;55906;52.278;6.808;2022-10-16T09:50:20;7.67;;;2.60;;
68870;SDS011;55906;52.278;6.808;2022-10-16T09:52:50;5.65;;;2.42;;
68870;SDS011;55906;52.278;6.808;2022-10-16T09:55:18;4.97;;;2.50;;
68870;SDS011;55906;52.278;6.808;2022-10-16T09:57:48;5.47;;;2.63;;
68870;SDS011;55906;52.278;6.808;2022-10-16T10:00:15;6.68;;;2.60;;
68870;SDS011;55906;52.278;6.808;2022-10-16T10:02:43;5.72;;;2.47;;
68870;SDS011;55906;52.278;6.808;2022-10-16T10:05:18;6.07;;;2.70;;
68870;SDS011;55906;52.278;6.808;2022-10-16T10:07:52;5.15;;;2.75;;
68870;SDS011;55906;52.278;6.808;2022-10-16T10:10:22;6.22;;;2.67;;
68870;SDS011;55906;52.278;6.808;2022-10-16T10:12:50;6.50;;;2.80;;
68870;SDS011;55906;52.278;6.808;2022-10-16T10:15:16;9.13;;;2.90;;
68870;SDS011;55906;52.278;6.808;2022-10-16T10:17:47;6.40;;;2.78;;
68870;SDS011;55906;52.278;6.808;2022-10-16T10:20:23;4.80;;;2.88;;
68870;SDS011;55906;52.278;6.808;2022-10-16T10:22:52;7.38;;;2.70;;
68870;SDS011;55906;52.278;6.808;2022-10-16T10:28:21;5.78;;;2.88;;
68870;SDS011;55906;52.278;6.808;2022-10-16T10:30:59;6.75;;;2.72;;
68870;SDS011;55906;52.278;6.808;2022-10-16T10:33:31;6.32;;;2.58;;
68870;SDS011;55906;52.278;6.808;2022-10-16T10:36:12;6.38;;;2.88;;
68870;SDS011;55906;52.278;6.808;2022-10-16T10:38:49;6.57;;;2.30;;
68870;SDS011;55906;52.278;6.808;2022-10-16T10:44:28;7.18;;;2.30;;
68870;SDS011;55906;52.278;6.808;2022-10-16T10:47:16;5.63;;;2.25;;
68870;SDS011;55906;52.278;6.808;2022-10-16T10:49:54;6.05;;;2.20;;
68870;SDS011;55906;52.278;6.808;2022-10-16T10:52:36;7.60;;;2.67;;
68870;SDS011;55906;52.278;6.808;2022-10-16T10:55:15;9.20;;;2.75;;
68870;SDS011;55906;52.278;6.808;2022-10-16T10:57:52;5.80;;;1.92;;
68870;SDS011;55906;52.278;6.808;2022-10-16T11:00:39;9.45;;;2.47;;
68870;SDS011;55906;52.278;6.808;2022-10-16T11:03:16;7.80;;;2.22;;
68870;SDS011;55906;52.278;6.808;2022-10-16T11:05:56;7.43;;;2.40;;
68870;SDS011;55906;52.278;6.808;2022-10-16T11:08:27;7.95;;;2.17;;
68870;SDS011;55906;52.278;6.808;2022-10-16T11:11:00;6.30;;;2.00;;
68870;SDS011;55906;52.278;6.808;2022-10-16T11:13:31;7.35;;;2.13;;
68870;SDS011;55906;52.278;6.808;2022-10-16T11:16:13;10.10;;;2.05;;
68870;SDS011;55906;52.278;6.808;2022-10-16T11:18:46;8.20;;;2.30;;
68870;SDS011;55906;52.278;6.808;2022-10-16T11:21:18;7.18;;;2.05;;
68870;SDS011;55906;52.278;6.808;2022-10-16T11:23:51;6.40;;;1.80;;
68870;SDS011;55906;52.278;6.808;2022-10-16T11:26:24;8.48;;;2.20;;
68870;SDS011;55906;52.278;6.808;2022-10-16T11:28:54;7.43;;;2.00;;
68870;SDS011;55906;52.278;6.808;2022-10-16T11:31:24;7.95;;;1.90;;
68870;SDS011;55906;52.278;6.808;2022-10-16T11:33:59;7.93;;;2.25;;
68870;SDS011;55906;52.278;6.808;2022-10-16T11:36:33;7.78;;;2.03;;
68870;SDS011;55906;52.278;6.808;2022-10-16T11:39:08;6.45;;;1.80;;
68870;SDS011;55906;52.278;6.808;2022-10-16T11:41:45;6.20;;;1.80;;
68870;SDS011;55906;52.278;6.808;2022-10-16T11:44:20;10.00;;;1.70;;
68870;SDS011;55906;52.278;6.808;2022-10-16T11:47:11;6.55;;;1.95;;
68870;SDS011;55906;52.278;6.808;2022-10-16T11:49:45;10.73;;;2.08;;
68870;SDS011;55906;52.278;6.808;2022-10-16T11:52:16;8.20;;;2.25;;
68870;SDS011;55906;52.278;6.808;2022-10-16T11:54:51;8.07;;;1.90;;
68870;SDS011;55906;52.278;6.808;2022-10-16T11:57:23;10.82;;;1.90;;
68870;SDS011;55906;52.278;6.808;2022-10-16T11:59:54;6.78;;;2.00;;
68870;SDS011;55906;52.278;6.808;2022-10-16T12:02:29;8.75;;;1.75;;
68870;SDS011;55906;52.278;6.808;2022-10-16T12:05:06;8.30;;;2.28;;
68870;SDS011;55906;52.278;6.808;2022-10-16T12:07:42;6.57;;;2.10;;
68870;SDS011;55906;52.278;6.808;2022-10-16T12:10:23;11.95;;;2.38;;
68870;SDS011;55906;52.278;6.808;2022-10-16T12:12:52;9.00;;;2.03;;
68870;SDS011;55906;52.278;6.808;2022-10-16T12:15:20;9.15;;;2.17;;
68870;SDS011;55906;52.278;6.808;2022-10-16T12:17:49;8.35;;;1.77;;
68870;SDS011;55906;52.278;6.808;2022-10-16T12:23:03;6.15;;;1.73;;
68870;SDS011;55906;52.278;6.808;2022-10-16T12:25:34;7.60;;;2.05;;
68870;SDS011;55906;52.278;6.808;2022-10-16T12:28:04;6.57;;;1.83;;
68870;SDS011;55906;52.278;6.808;2022-10-16T12:30:34;7.00;;;2.05;;
68870;SDS011;55906;52.278;6.808;2022-10-16T12:33:03;10.82;;;2.65;;
68870;SDS011;55906;52.278;6.808;2022-10-16T12:35:32;9.88;;;2.20;;
68870;SDS011;55906;52.278;6.808;2022-10-16T12:38:05;7.28;;;2.15;;
68870;SDS011;55906;52.278;6.808;2022-10-16T12:40:35;6.32;;;1.83;;
68870;SDS011;55906;52.278;6.808;2022-10-16T12:43:23;9.30;;;2.13;;
68870;SDS011;55906;52.278;6.808;2022-10-16T12:46:00;8.60;;;1.92;;
68870;SDS011;55906;52.278;6.808;2022-10-16T12:48:29;7.45;;;1.90;;
68870;SDS011;55906;52.278;6.808;2022-10-16T12:50:56;10.52;;;2.28;;
68870;SDS011;55906;52.278;6.808;2022-10-16T12:53:23;7.32;;;1.92;;
68870;SDS011;55906;52.278;6.808;2022-10-16T12:55:57;6.22;;;1.60;;
68870;SDS011;55906;52.278;6.808;2022-10-16T13:01:35;7.05;;;1.95;;
68870;SDS011;55906;52.278;6.808;2022-10-16T13:04:29;8.50;;;2.15;;
68870;SDS011;55906;52.278;6.808;2022-10-16T13:07:16;10.02;;;2.15;;
68870;SDS011;55906;52.278;6.808;2022-10-16T13:09:57;9.02;;;2.10;;
68870;SDS011;55906;52.278;6.808;2022-10-16T13:12:40;8.35;;;2.45;;
68870;SDS011;55906;52.278;6.808;2022-10-16T13:15:25;8.55;;;2.35;;
68870;SDS011;55906;52.278;6.808;2022-10-16T13:18:03;9.10;;;2.13;;
68870;SDS011;55906;52.278;6.808;2022-10-16T13:20:46;7.55;;;1.95;;
68870;SDS011;55906;52.278;6.808;2022-10-16T13:23:23;6.15;;;1.65;;
68870;SDS011;55906;52.278;6.808;2022-10-16T13:26:03;8.18;;;1.80;;
68870;SDS011;55906;52.278;6.808;2022-10-16T13:28:41;9.40;;;2.15;;
68870;SDS011;55906;52.278;6.808;2022-10-16T13:31:10;6.60;;;1.60;;
68870;SDS011;55906;52.278;6.808;2022-10-16T13:33:42;8.55;;;1.88;;
68870;SDS011;55906;52.278;6.808;2022-10-16T13:36:18;8.07;;;1.83;;
68870;SDS011;55906;52.278;6.808;2022-10-16T13:38:46;11.45;;;2.10;;
68870;SDS011;55906;52.278;6.808;2022-10-16T13:41:13;8.00;;;1.70;;
68870;SDS011;55906;52.278;6.808;2022-10-16T13:43:44;7.55;;;1.60;;
68870;SDS011;55906;52.278;6.808;2022-10-16T13:46:13;6.63;;;2.08;;
68870;SDS011;55906;52.278;6.808;2022-10-16T13:48:41;7.50;;;1.70;;
68870;SDS011;55906;52.278;6.808;2022-10-16T13:51:11;8.48;;;1.67;;
68870;SDS011;55906;52.278;6.808;2022-10-16T13:53:39;6.85;;;1.83;;
68870;SDS011;55906;52.278;6.808;2022-10-16T13:56:07;7.78;;;1.83;;
68870;SDS011;55906;52.278;6.808;2022-10-16T13:58:36;8.95;;;1.80;;
68870;SDS011;55906;52.278;6.808;2022-10-16T14:01:05;6.53;;;1.70;;
68870;SDS011;55906;52.278;6.808;2022-10-16T14:03:43;7.65;;;1.77;;
68870;SDS011;55906;52.278;6.808;2022-10-16T14:06:11;9.23;;;1.65;;
68870;SDS011;55906;52.278;6.808;2022-10-16T14:08:41;6.65;;;1.73;;
68870;SDS011;55906;52.278;6.808;2022-10-16T14:11:09;10.90;;;1.90;;
68870;SDS011;55906;52.278;6.808;2022-10-16T14:13:37;7.00;;;1.77;;
68870;SDS011;55906;52.278;6.808;2022-10-16T14:16:08;9.93;;;2.20;;
68870;SDS011;55906;52.278;6.808;2022-10-16T14:18:36;6.55;;;1.73;;
68870;SDS011;55906;52.278;6.808;2022-10-16T14:21:06;9.85;;;2.17;;
68870;SDS011;55906;52.278;6.808;2022-10-16T14:23:38;8.65;;;1.88;;
68870;SDS011;55906;52.278;6.808;2022-10-16T14:26:11;10.50;;;2.10;;
68870;SDS011;55906;52.278;6.808;2022-10-16T14:28:40;8.38;;;1.88;;
68870;SDS011;55906;52.278;6.808;2022-10-16T14:31:22;6.93;;;1.83;;
68870;SDS011;55906;52.278;6.808;2022-10-16T14:33:52;10.88;;;2.30;;
68870;SDS011;55906;52.278;6.808;2022-10-16T14:36:18;7.93;;;2.17;;
68870;SDS011;55906;52.278;6.808;2022-10-16T14:38:48;7.90;;;1.90;;
68870;SDS011;55906;52.278;6.808;2022-10-16T14:41:20;6.95;;;2.13;;
68870;SDS011;55906;52.278;6.808;2022-10-16T14:43:49;8.27;;;2.08;;
68870;SDS011;55906;52.278;6.808;2022-10-16T14:46:18;7.95;;;2.22;;
68870;SDS011;55906;52.278;6.808;2022-10-16T14:48:51;8.10;;;1.80;;
68870;SDS011;55906;52.278;6.808;2022-10-16T14:51:25;10.48;;;2.05;;
68870;SDS011;55906;52.278;6.808;2022-10-16T14:53:53;10.32;;;2.33;;
68870;SDS011;55906;52.278;6.808;2022-10-16T14:56:20;10.70;;;2.45;;
68870;SDS011;55906;52.278;6.808;2022-10-16T14:58:49;9.70;;;2.05;;
68870;SDS011;55906;52.278;6.808;2022-10-16T15:01:16;6.57;;;2.28;;
68870;SDS011;55906;52.278;6.808;2022-10-16T15:03:45;5.57;;;2.00;;
68870;SDS011;55906;52.278;6.808;2022-10-16T15:06:12;7.38;;;2.67;;
68870;SDS011;55906;52.278;6.808;2022-10-16T15:08:40;8.88;;;2.30;;
68870;SDS011;55906;52.278;6.808;2022-10-16T15:11:07;7.85;;;2.75;;
68870;SDS011;55906;52.278;6.808;2022-10-16T15:13:38;6.85;;;2.30;;
68870;SDS011;55906;52.278;6.808;2022-10-16T15:16:04;7.18;;;2.28;;
68870;SDS011;55906;52.278;6.808;2022-10-16T15:18:35;5.95;;;2.40;;
68870;SDS011;55906;52.278;6.808;2022-10-16T15:21:03;8.55;;;2.25;;